This is the latest recevied weather packets stored in our database for station/object I5EKX-13. If no packets are shown the sender has not sent any weather packets the latest 10 day(s).
| Time | Temp. | Humidity | Pressure | Rain* | Wind** | Luminosity | Snow |
|---|---|---|---|---|---|---|---|
| 1777157902 | 10° C | 83% | 1013.5 hPa | - | - | - | - |
| 1777156698 | 9.44° C | 82% | 1013.4 hPa | - | - | - | - |
| 1777155494 | 10° C | 82% | 1013.3 hPa | - | - | - | - |
| 1777154290 | 10° C | 81% | 1013.3 hPa | - | - | - | - |
| 1777153086 | 10° C | 82% | 1013.2 hPa | - | - | - | - |
| 1777151882 | 10.56° C | 81% | 1013.2 hPa | - | - | - | - |
| 1777150678 | 11.11° C | 78% | 1013 hPa | - | - | - | - |
| 1777149474 | 10.56° C | 80% | 1013.1 hPa | - | - | - | - |
| 1777148270 | 11.11° C | 78% | 1013 hPa | - | - | - | - |
| 1777147066 | 11.11° C | 81% | 1013 hPa | - | - | - | - |
| 1777143454 | 12.78° C | 78% | 1012.5 hPa | - | - | - | - |
| 1777142250 | 13.33° C | 74% | 1012.4 hPa | - | - | - | - |
| 1777141046 | 14.44° C | 73% | 1012.2 hPa | - | - | - | - |
| 1777139842 | 15.56° C | 69% | 1012.1 hPa | - | - | - | - |
| 1777138638 | 16.67° C | 65% | 1012 hPa | - | - | - | - |
| 1777137434 | 16.67° C | 64% | 1012.1 hPa | - | - | - | - |
| 1777136231 | 17.22° C | 65% | 1012.1 hPa | - | - | - | - |
| 1777135027 | 17.78° C | 63% | 1012.1 hPa | - | - | - | - |
| 1777133822 | 17.78° C | 63% | 1012.1 hPa | - | - | - | - |
| 1777132619 | 18.33° C | 58% | 1012 hPa | - | - | - | - |
| 1777131414 | 18.89° C | 59% | 1012.1 hPa | - | - | - | - |
| 1777130210 | 19.44° C | 57% | 1012.2 hPa | - | - | - | - |
| 1777129007 | 20° C | 59% | 1012.2 hPa | - | - | - | - |
| 1777127803 | 20° C | 57% | 1012.3 hPa | - | - | - | - |
| 1777126598 | 20.56° C | 54% | 1012.4 hPa | - | - | - | - |
* Rain since midnight (hover to see other rain measurements)
** Current wind speed in m/s (hover to see current wind gust speed)